sensor_id;sensor_type;location;lat;lon;timestamp;temperature;humidity
5041;DHT22;2539;52.568;13.364;2024-03-25T00:01:26;5.90;99.90
5041;DHT22;2539;52.568;13.364;2024-03-25T00:03:52;5.90;99.90
5041;DHT22;2539;52.568;13.364;2024-03-25T00:06:18;5.90;99.90
5041;DHT22;2539;52.568;13.364;2024-03-25T00:08:45;5.90;99.90
5041;DHT22;2539;52.568;13.364;2024-03-25T00:11:11;5.90;99.90
5041;DHT22;2539;52.568;13.364;2024-03-25T00:13:37;5.90;99.90
5041;DHT22;2539;52.568;13.364;2024-03-25T00:16:04;5.90;99.90
5041;DHT22;2539;52.568;13.364;2024-03-25T00:18:31;5.90;99.90
5041;DHT22;2539;52.568;13.364;2024-03-25T00:20:58;5.80;99.90
5041;DHT22;2539;52.568;13.364;2024-03-25T00:23:23;5.90;99.90
5041;DHT22;2539;52.568;13.364;2024-03-25T00:25:49;5.80;99.90
5041;DHT22;2539;52.568;13.364;2024-03-25T00:28:15;5.80;99.90
5041;DHT22;2539;52.568;13.364;2024-03-25T00:30:41;5.80;99.90
5041;DHT22;2539;52.568;13.364;2024-03-25T00:33:07;5.80;99.90
5041;DHT22;2539;52.568;13.364;2024-03-25T00:35:33;5.80;99.90
5041;DHT22;2539;52.568;13.364;2024-03-25T00:38:00;5.80;99.90
5041;DHT22;2539;52.568;13.364;2024-03-25T00:40:26;5.90;99.90
5041;DHT22;2539;52.568;13.364;2024-03-25T00:42:53;5.90;99.90
5041;DHT22;2539;52.568;13.364;2024-03-25T00:45:19;5.90;99.90
5041;DHT22;2539;52.568;13.364;2024-03-25T00:47:46;5.90;99.90
5041;DHT22;2539;52.568;13.364;2024-03-25T00:50:12;5.90;99.90
5041;DHT22;2539;52.568;13.364;2024-03-25T00:52:38;5.90;99.90
5041;DHT22;2539;52.568;13.364;2024-03-25T00:55:05;5.90;99.90
5041;DHT22;2539;52.568;13.364;2024-03-25T00:57:31;5.90;99.90
5041;DHT22;2539;52.568;13.364;2024-03-25T00:59:58;5.90;99.90
5041;DHT22;2539;52.568;13.364;2024-03-25T01:02:25;5.90;99.90
5041;DHT22;2539;52.568;13.364;2024-03-25T01:04:53;5.90;99.90
5041;DHT22;2539;52.568;13.364;2024-03-25T01:07:20;5.90;99.90
5041;DHT22;2539;52.568;13.364;2024-03-25T01:09:47;5.90;99.90
5041;DHT22;2539;52.568;13.364;2024-03-25T01:12:13;5.90;99.90
5041;DHT22;2539;52.568;13.364;2024-03-25T01:14:39;5.90;99.90
5041;DHT22;2539;52.568;13.364;2024-03-25T01:17:06;5.90;99.90
5041;DHT22;2539;52.568;13.364;2024-03-25T01:19:32;5.90;99.90
5041;DHT22;2539;52.568;13.364;2024-03-25T01:21:58;5.90;99.90
5041;DHT22;2539;52.568;13.364;2024-03-25T01:24:24;6.00;99.90
5041;DHT22;2539;52.568;13.364;2024-03-25T01:26:51;6.00;99.90
5041;DHT22;2539;52.568;13.364;2024-03-25T01:29:19;6.00;99.90
5041;DHT22;2539;52.568;13.364;2024-03-25T01:31:45;6.00;99.90
5041;DHT22;2539;52.568;13.364;2024-03-25T01:34:11;6.00;99.90
5041;DHT22;2539;52.568;13.364;2024-03-25T01:36:38;6.00;99.90
5041;DHT22;2539;52.568;13.364;2024-03-25T01:39:05;6.00;99.90
5041;DHT22;2539;52.568;13.364;2024-03-25T01:41:31;6.00;99.90
5041;DHT22;2539;52.568;13.364;2024-03-25T01:43:57;6.00;99.90
5041;DHT22;2539;52.568;13.364;2024-03-25T01:46:24;6.00;99.90
5041;DHT22;2539;52.568;13.364;2024-03-25T01:48:51;6.00;99.90
5041;DHT22;2539;52.568;13.364;2024-03-25T01:51:20;6.00;99.90
5041;DHT22;2539;52.568;13.364;2024-03-25T01:53:48;6.00;99.90
5041;DHT22;2539;52.568;13.364;2024-03-25T01:56:15;6.00;99.90
5041;DHT22;2539;52.568;13.364;2024-03-25T01:58:42;6.00;99.90
5041;DHT22;2539;52.568;13.364;2024-03-25T02:01:09;6.00;99.90
5041;DHT22;2539;52.568;13.364;2024-03-25T02:03:41;6.00;99.90
5041;DHT22;2539;52.568;13.364;2024-03-25T02:06:12;6.00;99.90
5041;DHT22;2539;52.568;13.364;2024-03-25T02:08:40;5.90;99.90
5041;DHT22;2539;52.568;13.364;2024-03-25T02:11:07;6.00;99.90
5041;DHT22;2539;52.568;13.364;2024-03-25T02:13:33;5.90;99.90
5041;DHT22;2539;52.568;13.364;2024-03-25T02:16:01;5.80;99.90
5041;DHT22;2539;52.568;13.364;2024-03-25T02:18:27;5.80;99.90
5041;DHT22;2539;52.568;13.364;2024-03-25T02:20:54;5.70;99.90
5041;DHT22;2539;52.568;13.364;2024-03-25T02:23:20;5.60;99.90
5041;DHT22;2539;52.568;13.364;2024-03-25T02:25:51;5.60;99.90
5041;DHT22;2539;52.568;13.364;2024-03-25T02:28:17;5.60;99.90
5041;DHT22;2539;52.568;13.364;2024-03-25T02:30:44;5.50;99.90
5041;DHT22;2539;52.568;13.364;2024-03-25T02:33:10;5.40;99.90
5041;DHT22;2539;52.568;13.364;2024-03-25T02:35:38;5.30;99.90
5041;DHT22;2539;52.568;13.364;2024-03-25T02:38:06;5.20;99.90
5041;DHT22;2539;52.568;13.364;2024-03-25T02:40:33;5.30;99.90
5041;DHT22;2539;52.568;13.364;2024-03-25T02:43:00;5.10;99.90
5041;DHT22;2539;52.568;13.364;2024-03-25T02:45:26;5.10;99.90
5041;DHT22;2539;52.568;13.364;2024-03-25T02:47:52;5.10;99.90
5041;DHT22;2539;52.568;13.364;2024-03-25T02:50:19;5.00;99.90
5041;DHT22;2539;52.568;13.364;2024-03-25T02:52:45;5.00;99.90
5041;DHT22;2539;52.568;13.364;2024-03-25T02:55:11;5.10;99.90
5041;DHT22;2539;52.568;13.364;2024-03-25T02:57:38;5.10;99.90
5041;DHT22;2539;52.568;13.364;2024-03-25T03:00:04;5.10;99.90
5041;DHT22;2539;52.568;13.364;2024-03-25T03:02:31;5.10;99.90
5041;DHT22;2539;52.568;13.364;2024-03-25T03:04:57;5.20;99.90
5041;DHT22;2539;52.568;13.364;2024-03-25T03:07:23;5.20;99.90
5041;DHT22;2539;52.568;13.364;2024-03-25T03:09:50;5.10;99.90
5041;DHT22;2539;52.568;13.364;2024-03-25T03:12:16;5.20;99.90
5041;DHT22;2539;52.568;13.364;2024-03-25T03:14:42;5.20;99.90
5041;DHT22;2539;52.568;13.364;2024-03-25T03:17:08;5.20;99.90
5041;DHT22;2539;52.568;13.364;2024-03-25T03:19:35;5.30;99.90
5041;DHT22;2539;52.568;13.364;2024-03-25T03:22:01;5.30;99.90
5041;DHT22;2539;52.568;13.364;2024-03-25T03:24:28;5.30;99.90
5041;DHT22;2539;52.568;13.364;2024-03-25T03:26:54;5.30;99.90
5041;DHT22;2539;52.568;13.364;2024-03-25T03:29:20;5.40;99.90
5041;DHT22;2539;52.568;13.364;2024-03-25T03:31:47;5.40;99.90
5041;DHT22;2539;52.568;13.364;2024-03-25T03:34:13;5.50;99.90
5041;DHT22;2539;52.568;13.364;2024-03-25T03:36:39;5.50;99.90
5041;DHT22;2539;52.568;13.364;2024-03-25T03:39:06;5.50;99.90
5041;DHT22;2539;52.568;13.364;2024-03-25T03:41:36;5.50;99.90
5041;DHT22;2539;52.568;13.364;2024-03-25T03:44:02;5.50;99.90
5041;DHT22;2539;52.568;13.364;2024-03-25T03:46:29;5.50;99.90
5041;DHT22;2539;52.568;13.364;2024-03-25T03:48:55;5.50;99.90
5041;DHT22;2539;52.568;13.364;2024-03-25T03:51:22;5.50;99.90
5041;DHT22;2539;52.568;13.364;2024-03-25T03:53:48;5.50;99.90
5041;DHT22;2539;52.568;13.364;2024-03-25T03:56:15;5.50;99.90
5041;DHT22;2539;52.568;13.364;2024-03-25T03:58:42;5.50;99.90
5041;DHT22;2539;52.568;13.364;2024-03-25T04:01:18;5.50;99.90
5041;DHT22;2539;52.568;13.364;2024-03-25T04:03:44;5.60;99.90
5041;DHT22;2539;52.568;13.364;2024-03-25T04:06:12;5.60;99.90
5041;DHT22;2539;52.568;13.364;2024-03-25T04:08:39;5.60;99.90
5041;DHT22;2539;52.568;13.364;2024-03-25T04:11:06;5.60;99.90
5041;DHT22;2539;52.568;13.364;2024-03-25T04:13:33;5.70;99.90
5041;DHT22;2539;52.568;13.364;2024-03-25T04:16:04;5.60;99.90
5041;DHT22;2539;52.568;13.364;2024-03-25T04:18:32;5.60;99.90
5041;DHT22;2539;52.568;13.364;2024-03-25T04:20:58;5.60;99.90
5041;DHT22;2539;52.568;13.364;2024-03-25T04:23:25;5.60;99.90
5041;DHT22;2539;52.568;13.364;2024-03-25T04:25:52;5.60;99.90
5041;DHT22;2539;52.568;13.364;2024-03-25T04:28:19;5.50;99.90
5041;DHT22;2539;52.568;13.364;2024-03-25T04:30:53;5.50;99.90
5041;DHT22;2539;52.568;13.364;2024-03-25T04:33:19;5.50;99.90
5041;DHT22;2539;52.568;13.364;2024-03-25T04:35:47;5.60;99.90
5041;DHT22;2539;52.568;13.364;2024-03-25T04:38:16;5.50;99.90
5041;DHT22;2539;52.568;13.364;2024-03-25T04:40:42;5.50;99.90
5041;DHT22;2539;52.568;13.364;2024-03-25T04:43:10;5.50;99.90
5041;DHT22;2539;52.568;13.364;2024-03-25T04:45:36;5.50;99.90
5041;DHT22;2539;52.568;13.364;2024-03-25T04:48:03;5.50;99.90
5041;DHT22;2539;52.568;13.364;2024-03-25T04:50:30;5.50;99.90
5041;DHT22;2539;52.568;13.364;2024-03-25T04:52:56;5.50;99.90
5041;DHT22;2539;52.568;13.364;2024-03-25T04:55:22;5.60;99.90
5041;DHT22;2539;52.568;13.364;2024-03-25T04:57:49;5.50;99.90
5041;DHT22;2539;52.568;13.364;2024-03-25T05:00:15;5.50;99.90
5041;DHT22;2539;52.568;13.364;2024-03-25T05:02:41;5.50;99.90
5041;DHT22;2539;52.568;13.364;2024-03-25T05:05:08;5.60;99.90
5041;DHT22;2539;52.568;13.364;2024-03-25T05:07:34;5.60;99.90
5041;DHT22;2539;52.568;13.364;2024-03-25T05:10:01;5.60;99.90
5041;DHT22;2539;52.568;13.364;2024-03-25T05:12:27;5.60;99.90
5041;DHT22;2539;52.568;13.364;2024-03-25T05:14:56;5.60;99.90
5041;DHT22;2539;52.568;13.364;2024-03-25T05:17:23;5.60;99.90
5041;DHT22;2539;52.568;13.364;2024-03-25T05:19:49;5.60;99.90
5041;DHT22;2539;52.568;13.364;2024-03-25T05:22:15;5.70;99.90
5041;DHT22;2539;52.568;13.364;2024-03-25T05:24:42;5.70;99.90
5041;DHT22;2539;52.568;13.364;2024-03-25T05:27:08;5.70;99.90
5041;DHT22;2539;52.568;13.364;2024-03-25T05:29:34;5.70;99.90
5041;DHT22;2539;52.568;13.364;2024-03-25T05:32:01;5.70;99.90
5041;DHT22;2539;52.568;13.364;2024-03-25T05:34:28;5.60;99.90
5041;DHT22;2539;52.568;13.364;2024-03-25T05:36:55;5.60;99.90
5041;DHT22;2539;52.568;13.364;2024-03-25T05:39:21;5.70;99.90
5041;DHT22;2539;52.568;13.364;2024-03-25T05:41:48;5.60;99.90
5041;DHT22;2539;52.568;13.364;2024-03-25T05:44:14;5.70;99.90
5041;DHT22;2539;52.568;13.364;2024-03-25T05:46:41;5.70;99.90
5041;DHT22;2539;52.568;13.364;2024-03-25T05:49:07;5.70;99.90
5041;DHT22;2539;52.568;13.364;2024-03-25T05:51:33;5.60;99.90
5041;DHT22;2539;52.568;13.364;2024-03-25T05:54:00;5.70;99.90
5041;DHT22;2539;52.568;13.364;2024-03-25T05:56:26;5.70;99.90
5041;DHT22;2539;52.568;13.364;2024-03-25T05:58:57;5.70;99.90
5041;DHT22;2539;52.568;13.364;2024-03-25T06:01:24;5.70;99.90
5041;DHT22;2539;52.568;13.364;2024-03-25T06:03:50;5.70;99.90
5041;DHT22;2539;52.568;13.364;2024-03-25T06:06:17;5.70;99.90
5041;DHT22;2539;52.568;13.364;2024-03-25T06:08:43;5.70;99.90
5041;DHT22;2539;52.568;13.364;2024-03-25T06:11:10;5.70;99.90
5041;DHT22;2539;52.568;13.364;2024-03-25T06:13:36;5.70;99.90
5041;DHT22;2539;52.568;13.364;2024-03-25T06:16:02;5.70;99.90
5041;DHT22;2539;52.568;13.364;2024-03-25T06:18:29;5.70;99.90
5041;DHT22;2539;52.568;13.364;2024-03-25T06:20:55;5.70;99.90
5041;DHT22;2539;52.568;13.364;2024-03-25T06:23:23;5.60;99.90
5041;DHT22;2539;52.568;13.364;2024-03-25T06:25:50;5.70;99.90
5041;DHT22;2539;52.568;13.364;2024-03-25T06:28:17;5.70;99.90
5041;DHT22;2539;52.568;13.364;2024-03-25T06:30:45;5.70;99.90
5041;DHT22;2539;52.568;13.364;2024-03-25T06:33:30;5.80;99.90
5041;DHT22;2539;52.568;13.364;2024-03-25T06:36:14;5.70;99.90
5041;DHT22;2539;52.568;13.364;2024-03-25T06:38:41;5.80;99.90
5041;DHT22;2539;52.568;13.364;2024-03-25T06:41:07;5.80;99.90
5041;DHT22;2539;52.568;13.364;2024-03-25T06:43:33;5.80;99.90
5041;DHT22;2539;52.568;13.364;2024-03-25T06:45:59;5.80;99.90
5041;DHT22;2539;52.568;13.364;2024-03-25T06:48:26;5.80;99.90
5041;DHT22;2539;52.568;13.364;2024-03-25T06:50:56;5.80;99.90
5041;DHT22;2539;52.568;13.364;2024-03-25T06:53:23;5.80;99.90
5041;DHT22;2539;52.568;13.364;2024-03-25T06:55:57;5.80;99.90
5041;DHT22;2539;52.568;13.364;2024-03-25T06:58:24;5.70;99.90
5041;DHT22;2539;52.568;13.364;2024-03-25T07:00:51;5.80;99.90
5041;DHT22;2539;52.568;13.364;2024-03-25T07:03:19;5.80;99.90
5041;DHT22;2539;52.568;13.364;2024-03-25T07:05:47;5.80;99.90
5041;DHT22;2539;52.568;13.364;2024-03-25T07:08:13;5.80;99.90
5041;DHT22;2539;52.568;13.364;2024-03-25T07:10:43;5.70;99.90
5041;DHT22;2539;52.568;13.364;2024-03-25T07:13:09;5.70;99.90
5041;DHT22;2539;52.568;13.364;2024-03-25T07:15:36;5.80;99.90
5041;DHT22;2539;52.568;13.364;2024-03-25T07:18:02;5.70;99.90
5041;DHT22;2539;52.568;13.364;2024-03-25T07:20:30;5.80;99.90
5041;DHT22;2539;52.568;13.364;2024-03-25T07:22:57;5.90;99.90
5041;DHT22;2539;52.568;13.364;2024-03-25T07:25:24;6.00;99.90
5041;DHT22;2539;52.568;13.364;2024-03-25T07:27:51;5.90;99.90
5041;DHT22;2539;52.568;13.364;2024-03-25T07:30:17;5.90;99.90
5041;DHT22;2539;52.568;13.364;2024-03-25T07:32:43;5.90;99.90
5041;DHT22;2539;52.568;13.364;2024-03-25T07:35:11;5.90;99.90
5041;DHT22;2539;52.568;13.364;2024-03-25T07:37:38;5.80;99.90
5041;DHT22;2539;52.568;13.364;2024-03-25T07:40:05;5.80;99.90
5041;DHT22;2539;52.568;13.364;2024-03-25T07:42:32;5.80;99.90
5041;DHT22;2539;52.568;13.364;2024-03-25T07:44:58;5.90;99.90
5041;DHT22;2539;52.568;13.364;2024-03-25T07:47:24;5.90;99.90
5041;DHT22;2539;52.568;13.364;2024-03-25T07:49:50;5.80;99.90
5041;DHT22;2539;52.568;13.364;2024-03-25T07:52:17;5.90;99.90
5041;DHT22;2539;52.568;13.364;2024-03-25T07:54:43;5.80;99.90
5041;DHT22;2539;52.568;13.364;2024-03-25T07:57:09;5.80;99.90
5041;DHT22;2539;52.568;13.364;2024-03-25T07:59:35;5.70;99.90
5041;DHT22;2539;52.568;13.364;2024-03-25T08:02:02;5.80;99.90
5041;DHT22;2539;52.568;13.364;2024-03-25T08:04:28;5.90;99.90
5041;DHT22;2539;52.568;13.364;2024-03-25T08:06:55;6.00;99.90
5041;DHT22;2539;52.568;13.364;2024-03-25T08:09:21;6.10;99.90
5041;DHT22;2539;52.568;13.364;2024-03-25T08:11:47;6.00;99.90
5041;DHT22;2539;52.568;13.364;2024-03-25T08:14:14;6.10;99.90
5041;DHT22;2539;52.568;13.364;2024-03-25T08:16:40;6.10;99.90
5041;DHT22;2539;52.568;13.364;2024-03-25T08:19:06;6.20;99.90
5041;DHT22;2539;52.568;13.364;2024-03-25T08:21:32;6.40;99.90
5041;DHT22;2539;52.568;13.364;2024-03-25T08:23:59;6.50;99.90
5041;DHT22;2539;52.568;13.364;2024-03-25T08:26:25;6.50;99.90
5041;DHT22;2539;52.568;13.364;2024-03-25T08:28:51;6.70;99.90
5041;DHT22;2539;52.568;13.364;2024-03-25T08:31:18;6.80;99.90
5041;DHT22;2539;52.568;13.364;2024-03-25T08:33:44;7.00;99.90
5041;DHT22;2539;52.568;13.364;2024-03-25T08:36:11;7.00;99.90
5041;DHT22;2539;52.568;13.364;2024-03-25T08:38:37;6.90;99.90
5041;DHT22;2539;52.568;13.364;2024-03-25T08:41:06;6.70;99.90
5041;DHT22;2539;52.568;13.364;2024-03-25T08:43:32;6.70;99.90
5041;DHT22;2539;52.568;13.364;2024-03-25T08:45:58;6.60;99.90
5041;DHT22;2539;52.568;13.364;2024-03-25T08:48:25;6.80;99.90
5041;DHT22;2539;52.568;13.364;2024-03-25T08:50:51;6.90;99.90
5041;DHT22;2539;52.568;13.364;2024-03-25T08:53:17;6.90;99.90
5041;DHT22;2539;52.568;13.364;2024-03-25T08:55:46;7.00;99.90
5041;DHT22;2539;52.568;13.364;2024-03-25T08:58:14;6.90;99.90
5041;DHT22;2539;52.568;13.364;2024-03-25T09:00:41;6.90;99.90
5041;DHT22;2539;52.568;13.364;2024-03-25T09:03:07;7.00;99.90
5041;DHT22;2539;52.568;13.364;2024-03-25T09:05:34;7.10;99.90
5041;DHT22;2539;52.568;13.364;2024-03-25T09:08:01;7.40;99.90
5041;DHT22;2539;52.568;13.364;2024-03-25T09:10:28;7.30;99.90
5041;DHT22;2539;52.568;13.364;2024-03-25T09:13:13;7.20;99.90
5041;DHT22;2539;52.568;13.364;2024-03-25T09:15:39;7.20;99.90
5041;DHT22;2539;52.568;13.364;2024-03-25T09:18:06;7.50;99.90
5041;DHT22;2539;52.568;13.364;2024-03-25T09:20:32;7.40;99.90
5041;DHT22;2539;52.568;13.364;2024-03-25T09:22:58;7.30;99.90
5041;DHT22;2539;52.568;13.364;2024-03-25T09:25:24;7.50;99.90
5041;DHT22;2539;52.568;13.364;2024-03-25T09:27:50;7.30;99.90
5041;DHT22;2539;52.568;13.364;2024-03-25T09:30:17;7.20;99.90
5041;DHT22;2539;52.568;13.364;2024-03-25T09:32:46;6.90;99.90
5041;DHT22;2539;52.568;13.364;2024-03-25T09:35:12;6.90;99.90
5041;DHT22;2539;52.568;13.364;2024-03-25T09:37:38;7.00;99.90
5041;DHT22;2539;52.568;13.364;2024-03-25T09:40:05;7.10;99.90
5041;DHT22;2539;52.568;13.364;2024-03-25T09:42:36;7.00;99.90
5041;DHT22;2539;52.568;13.364;2024-03-25T09:45:07;6.90;99.90
5041;DHT22;2539;52.568;13.364;2024-03-25T09:47:33;6.90;99.90
5041;DHT22;2539;52.568;13.364;2024-03-25T09:50:02;6.90;99.90
5041;DHT22;2539;52.568;13.364;2024-03-25T09:52:30;7.30;99.90
5041;DHT22;2539;52.568;13.364;2024-03-25T09:54:57;7.40;99.90
5041;DHT22;2539;52.568;13.364;2024-03-25T09:57:22;7.60;99.90
5041;DHT22;2539;52.568;13.364;2024-03-25T09:59:49;7.60;99.90
5041;DHT22;2539;52.568;13.364;2024-03-25T10:02:16;7.80;99.90
5041;DHT22;2539;52.568;13.364;2024-03-25T10:04:47;8.10;99.90
5041;DHT22;2539;52.568;13.364;2024-03-25T10:07:24;7.90;99.90
5041;DHT22;2539;52.568;13.364;2024-03-25T10:09:50;8.10;99.90
5041;DHT22;2539;52.568;13.364;2024-03-25T10:12:17;8.10;99.90
5041;DHT22;2539;52.568;13.364;2024-03-25T10:14:44;8.20;99.90
5041;DHT22;2539;52.568;13.364;2024-03-25T10:17:10;8.00;99.90
5041;DHT22;2539;52.568;13.364;2024-03-25T10:19:36;8.00;99.90
5041;DHT22;2539;52.568;13.364;2024-03-25T10:22:08;8.10;99.90
5041;DHT22;2539;52.568;13.364;2024-03-25T10:27:03;8.20;99.90
5041;DHT22;2539;52.568;13.364;2024-03-25T10:29:29;8.20;99.90
5041;DHT22;2539;52.568;13.364;2024-03-25T10:32:02;8.40;99.90
5041;DHT22;2539;52.568;13.364;2024-03-25T10:34:31;8.80;99.90
5041;DHT22;2539;52.568;13.364;2024-03-25T10:36:57;9.20;99.90
5041;DHT22;2539;52.568;13.364;2024-03-25T10:39:26;8.50;99.90
5041;DHT22;2539;52.568;13.364;2024-03-25T10:41:57;8.50;99.90
5041;DHT22;2539;52.568;13.364;2024-03-25T10:44:24;8.60;99.90
5041;DHT22;2539;52.568;13.364;2024-03-25T10:46:55;8.70;99.90
5041;DHT22;2539;52.568;13.364;2024-03-25T10:49:44;8.30;99.90
5041;DHT22;2539;52.568;13.364;2024-03-25T10:52:14;8.30;99.90
5041;DHT22;2539;52.568;13.364;2024-03-25T10:54:43;8.20;99.90
5041;DHT22;2539;52.568;13.364;2024-03-25T10:57:09;8.50;99.90
5041;DHT22;2539;52.568;13.364;2024-03-25T10:59:37;8.50;99.90
5041;DHT22;2539;52.568;13.364;2024-03-25T11:02:08;8.60;99.90
5041;DHT22;2539;52.568;13.364;2024-03-25T11:04:34;8.80;99.90
5041;DHT22;2539;52.568;13.364;2024-03-25T11:07:12;8.40;99.90
5041;DHT22;2539;52.568;13.364;2024-03-25T11:09:39;8.30;99.90
5041;DHT22;2539;52.568;13.364;2024-03-25T11:12:06;8.50;99.90
5041;DHT22;2539;52.568;13.364;2024-03-25T11:14:33;8.60;99.90
5041;DHT22;2539;52.568;13.364;2024-03-25T11:17:00;8.70;99.90
5041;DHT22;2539;52.568;13.364;2024-03-25T11:19:28;8.60;99.90
5041;DHT22;2539;52.568;13.364;2024-03-25T11:22:06;8.70;99.90
5041;DHT22;2539;52.568;13.364;2024-03-25T11:24:33;8.80;99.90
5041;DHT22;2539;52.568;13.364;2024-03-25T11:27:05;8.80;99.90
5041;DHT22;2539;52.568;13.364;2024-03-25T11:29:32;8.60;99.90
5041;DHT22;2539;52.568;13.364;2024-03-25T11:32:02;8.60;99.90
5041;DHT22;2539;52.568;13.364;2024-03-25T11:34:29;8.70;99.90
5041;DHT22;2539;52.568;13.364;2024-03-25T11:36:56;8.80;99.90
5041;DHT22;2539;52.568;13.364;2024-03-25T11:39:24;8.90;99.90
5041;DHT22;2539;52.568;13.364;2024-03-25T11:41:54;9.10;99.90
5041;DHT22;2539;52.568;13.364;2024-03-25T11:44:21;9.30;99.90
5041;DHT22;2539;52.568;13.364;2024-03-25T11:46:51;9.50;99.90
5041;DHT22;2539;52.568;13.364;2024-03-25T11:49:21;9.40;99.90
5041;DHT22;2539;52.568;13.364;2024-03-25T11:51:47;9.60;99.90
5041;DHT22;2539;52.568;13.364;2024-03-25T11:54:14;9.70;99.90
5041;DHT22;2539;52.568;13.364;2024-03-25T11:56:41;9.70;99.90
5041;DHT22;2539;52.568;13.364;2024-03-25T11:59:09;9.70;99.90
5041;DHT22;2539;52.568;13.364;2024-03-25T12:01:37;9.90;99.90
5041;DHT22;2539;52.568;13.364;2024-03-25T12:04:11;10.20;99.90
5041;DHT22;2539;52.568;13.364;2024-03-25T12:06:38;9.60;99.90
5041;DHT22;2539;52.568;13.364;2024-03-25T12:09:04;8.80;99.90
5041;DHT22;2539;52.568;13.364;2024-03-25T12:11:49;8.50;99.90
5041;DHT22;2539;52.568;13.364;2024-03-25T12:14:16;8.50;99.90
5041;DHT22;2539;52.568;13.364;2024-03-25T12:16:42;8.50;99.90
5041;DHT22;2539;52.568;13.364;2024-03-25T12:19:09;8.60;99.90
5041;DHT22;2539;52.568;13.364;2024-03-25T12:21:36;8.40;99.90
5041;DHT22;2539;52.568;13.364;2024-03-25T12:24:03;8.50;99.90
5041;DHT22;2539;52.568;13.364;2024-03-25T12:26:31;8.50;99.90
5041;DHT22;2539;52.568;13.364;2024-03-25T12:28:58;8.60;99.90
5041;DHT22;2539;52.568;13.364;2024-03-25T12:31:24;8.50;99.90
5041;DHT22;2539;52.568;13.364;2024-03-25T12:33:51;8.70;99.90
5041;DHT22;2539;52.568;13.364;2024-03-25T12:36:17;8.70;99.90
5041;DHT22;2539;52.568;13.364;2024-03-25T12:38:54;8.80;99.90
5041;DHT22;2539;52.568;13.364;2024-03-25T12:41:22;8.90;99.90
5041;DHT22;2539;52.568;13.364;2024-03-25T12:43:50;9.30;99.90
5041;DHT22;2539;52.568;13.364;2024-03-25T12:46:17;9.40;99.90
5041;DHT22;2539;52.568;13.364;2024-03-25T12:48:43;9.10;99.90
5041;DHT22;2539;52.568;13.364;2024-03-25T12:51:14;9.20;99.90
5041;DHT22;2539;52.568;13.364;2024-03-25T12:53:40;9.30;99.90
5041;DHT22;2539;52.568;13.364;2024-03-25T12:56:07;9.40;99.90
5041;DHT22;2539;52.568;13.364;2024-03-25T12:58:34;9.50;99.90
5041;DHT22;2539;52.568;13.364;2024-03-25T13:01:00;9.50;99.90
5041;DHT22;2539;52.568;13.364;2024-03-25T13:03:27;9.50;99.90
5041;DHT22;2539;52.568;13.364;2024-03-25T13:05:53;9.80;99.90
5041;DHT22;2539;52.568;13.364;2024-03-25T13:08:20;9.70;99.90
5041;DHT22;2539;52.568;13.364;2024-03-25T13:10:48;9.50;99.90
5041;DHT22;2539;52.568;13.364;2024-03-25T13:13:14;10.00;99.90
5041;DHT22;2539;52.568;13.364;2024-03-25T13:15:40;10.50;99.90
5041;DHT22;2539;52.568;13.364;2024-03-25T13:18:07;10.40;99.90
5041;DHT22;2539;52.568;13.364;2024-03-25T13:20:33;10.00;99.90
5041;DHT22;2539;52.568;13.364;2024-03-25T13:22:59;9.90;99.90
5041;DHT22;2539;52.568;13.364;2024-03-25T13:25:26;9.90;99.90
5041;DHT22;2539;52.568;13.364;2024-03-25T13:27:55;9.50;99.90
5041;DHT22;2539;52.568;13.364;2024-03-25T13:30:21;9.60;99.90
5041;DHT22;2539;52.568;13.364;2024-03-25T13:32:50;9.70;99.90
5041;DHT22;2539;52.568;13.364;2024-03-25T13:35:17;9.70;99.90
5041;DHT22;2539;52.568;13.364;2024-03-25T13:37:44;9.60;99.90
5041;DHT22;2539;52.568;13.364;2024-03-25T13:40:13;9.60;99.90
5041;DHT22;2539;52.568;13.364;2024-03-25T13:42:39;9.70;99.90
5041;DHT22;2539;52.568;13.364;2024-03-25T13:45:06;9.90;99.90
5041;DHT22;2539;52.568;13.364;2024-03-25T13:47:32;10.10;99.90
5041;DHT22;2539;52.568;13.364;2024-03-25T13:50:06;10.20;99.90
5041;DHT22;2539;52.568;13.364;2024-03-25T13:52:34;9.90;99.90
5041;DHT22;2539;52.568;13.364;2024-03-25T13:55:01;10.00;99.90
5041;DHT22;2539;52.568;13.364;2024-03-25T13:57:28;9.90;99.90
5041;DHT22;2539;52.568;13.364;2024-03-25T13:59:54;10.40;99.90
5041;DHT22;2539;52.568;13.364;2024-03-25T14:02:20;10.40;99.90
5041;DHT22;2539;52.568;13.364;2024-03-25T14:04:46;10.70;99.90
5041;DHT22;2539;52.568;13.364;2024-03-25T14:07:13;10.70;99.90
5041;DHT22;2539;52.568;13.364;2024-03-25T14:09:39;10.20;99.90
5041;DHT22;2539;52.568;13.364;2024-03-25T14:12:05;9.90;99.90
5041;DHT22;2539;52.568;13.364;2024-03-25T14:14:32;9.80;99.90
5041;DHT22;2539;52.568;13.364;2024-03-25T14:16:58;9.80;99.90
5041;DHT22;2539;52.568;13.364;2024-03-25T14:19:25;10.00;99.90
5041;DHT22;2539;52.568;13.364;2024-03-25T14:21:51;10.10;99.90
5041;DHT22;2539;52.568;13.364;2024-03-25T14:24:17;10.20;99.90
5041;DHT22;2539;52.568;13.364;2024-03-25T14:26:43;10.10;99.90
5041;DHT22;2539;52.568;13.364;2024-03-25T14:29:10;10.40;99.90
5041;DHT22;2539;52.568;13.364;2024-03-25T14:31:36;10.10;99.90
5041;DHT22;2539;52.568;13.364;2024-03-25T14:34:02;9.80;99.90
5041;DHT22;2539;52.568;13.364;2024-03-25T14:36:28;9.60;99.90
5041;DHT22;2539;52.568;13.364;2024-03-25T14:38:55;9.50;99.90
5041;DHT22;2539;52.568;13.364;2024-03-25T14:41:21;9.50;99.90
5041;DHT22;2539;52.568;13.364;2024-03-25T14:43:48;9.40;99.90
5041;DHT22;2539;52.568;13.364;2024-03-25T14:46:14;9.50;99.90
5041;DHT22;2539;52.568;13.364;2024-03-25T14:48:41;9.60;99.90
5041;DHT22;2539;52.568;13.364;2024-03-25T14:51:07;9.60;99.90
5041;DHT22;2539;52.568;13.364;2024-03-25T14:53:34;9.70;99.90
5041;DHT22;2539;52.568;13.364;2024-03-25T14:56:00;9.60;99.90
5041;DHT22;2539;52.568;13.364;2024-03-25T14:58:26;9.50;99.90
5041;DHT22;2539;52.568;13.364;2024-03-25T15:00:53;9.30;99.90
5041;DHT22;2539;52.568;13.364;2024-03-25T15:03:19;9.30;99.90
5041;DHT22;2539;52.568;13.364;2024-03-25T15:05:45;9.10;99.90
5041;DHT22;2539;52.568;13.364;2024-03-25T15:08:12;9.00;99.90
5041;DHT22;2539;52.568;13.364;2024-03-25T15:10:38;9.00;99.90
5041;DHT22;2539;52.568;13.364;2024-03-25T15:13:04;8.90;99.90
5041;DHT22;2539;52.568;13.364;2024-03-25T15:15:31;9.00;99.90
5041;DHT22;2539;52.568;13.364;2024-03-25T15:18:01;9.00;99.90
5041;DHT22;2539;52.568;13.364;2024-03-25T15:20:28;9.00;99.90
5041;DHT22;2539;52.568;13.364;2024-03-25T15:22:54;8.90;99.90
5041;DHT22;2539;52.568;13.364;2024-03-25T15:25:20;8.90;99.90
5041;DHT22;2539;52.568;13.364;2024-03-25T15:27:46;8.90;99.90
5041;DHT22;2539;52.568;13.364;2024-03-25T15:30:13;8.90;99.90
5041;DHT22;2539;52.568;13.364;2024-03-25T15:32:39;8.90;99.90
5041;DHT22;2539;52.568;13.364;2024-03-25T15:35:05;8.90;99.90
5041;DHT22;2539;52.568;13.364;2024-03-25T15:37:31;8.80;99.90
5041;DHT22;2539;52.568;13.364;2024-03-25T15:39:57;8.80;99.90
5041;DHT22;2539;52.568;13.364;2024-03-25T15:42:22;8.80;99.90
5041;DHT22;2539;52.568;13.364;2024-03-25T15:44:51;8.80;99.90
5041;DHT22;2539;52.568;13.364;2024-03-25T15:47:20;8.90;99.90
5041;DHT22;2539;52.568;13.364;2024-03-25T15:49:47;8.90;99.90
5041;DHT22;2539;52.568;13.364;2024-03-25T15:52:14;8.90;99.90
5041;DHT22;2539;52.568;13.364;2024-03-25T15:54:40;8.90;99.90
5041;DHT22;2539;52.568;13.364;2024-03-25T15:57:06;8.90;99.90
5041;DHT22;2539;52.568;13.364;2024-03-25T15:59:33;8.80;99.90
5041;DHT22;2539;52.568;13.364;2024-03-25T16:01:59;8.70;99.90